sensor_id;sensor_type;location;lat;lon;timestamp;P1;durP1;ratioP1;P2;durP2;ratioP2
22768;SDS011;13001;51.968;5.918;2024-01-27T00:01:32;23.87;;;5.03;;
22768;SDS011;13001;51.968;5.918;2024-01-27T00:03:59;25.80;;;5.53;;
22768;SDS011;13001;51.968;5.918;2024-01-27T00:06:27;23.40;;;4.97;;
22768;SDS011;13001;51.968;5.918;2024-01-27T00:08:54;24.63;;;4.95;;
22768;SDS011;13001;51.968;5.918;2024-01-27T00:11:22;25.68;;;5.42;;
22768;SDS011;13001;51.968;5.918;2024-01-27T00:13:50;20.32;;;4.90;;
22768;SDS011;13001;51.968;5.918;2024-01-27T00:16:18;26.73;;;5.28;;
22768;SDS011;13001;51.968;5.918;2024-01-27T00:18:47;21.60;;;4.80;;
22768;SDS011;13001;51.968;5.918;2024-01-27T00:21:14;21.60;;;4.90;;
22768;SDS011;13001;51.968;5.918;2024-01-27T00:23:42;24.83;;;4.90;;
22768;SDS011;13001;51.968;5.918;2024-01-27T00:26:09;24.23;;;5.42;;
22768;SDS011;13001;51.968;5.918;2024-01-27T00:28:37;24.07;;;4.97;;
22768;SDS011;13001;51.968;5.918;2024-01-27T00:31:04;22.73;;;4.72;;
22768;SDS011;13001;51.968;5.918;2024-01-27T00:33:32;20.15;;;4.60;;
22768;SDS011;13001;51.968;5.918;2024-01-27T00:35:59;22.98;;;5.03;;
22768;SDS011;13001;51.968;5.918;2024-01-27T00:38:27;23.77;;;4.92;;
22768;SDS011;13001;51.968;5.918;2024-01-27T00:40:54;20.80;;;4.83;;
22768;SDS011;13001;51.968;5.918;2024-01-27T00:43:22;21.37;;;4.87;;
22768;SDS011;13001;51.968;5.918;2024-01-27T00:45:49;23.38;;;5.17;;
22768;SDS011;13001;51.968;5.918;2024-01-27T00:48:17;21.55;;;4.85;;
22768;SDS011;13001;51.968;5.918;2024-01-27T00:50:45;28.75;;;5.10;;
22768;SDS011;13001;51.968;5.918;2024-01-27T00:53:12;18.93;;;4.50;;
22768;SDS011;13001;51.968;5.918;2024-01-27T00:55:40;17.32;;;4.62;;
22768;SDS011;13001;51.968;5.918;2024-01-27T00:58:08;21.97;;;5.10;;
22768;SDS011;13001;51.968;5.918;2024-01-27T01:00:36;21.70;;;4.62;;
22768;SDS011;13001;51.968;5.918;2024-01-27T01:03:03;20.97;;;4.60;;
22768;SDS011;13001;51.968;5.918;2024-01-27T01:05:31;23.02;;;4.67;;
22768;SDS011;13001;51.968;5.918;2024-01-27T01:07:58;21.85;;;4.85;;
22768;SDS011;13001;51.968;5.918;2024-01-27T01:10:26;22.22;;;4.58;;
22768;SDS011;13001;51.968;5.918;2024-01-27T01:12:53;24.55;;;5.15;;
22768;SDS011;13001;51.968;5.918;2024-01-27T01:15:21;27.00;;;4.50;;
22768;SDS011;13001;51.968;5.918;2024-01-27T01:17:48;26.20;;;4.95;;
22768;SDS011;13001;51.968;5.918;2024-01-27T01:20:17;25.85;;;4.83;;
22768;SDS011;13001;51.968;5.918;2024-01-27T01:22:45;28.85;;;4.72;;
22768;SDS011;13001;51.968;5.918;2024-01-27T01:25:12;26.10;;;4.95;;
22768;SDS011;13001;51.968;5.918;2024-01-27T01:27:40;17.57;;;4.67;;
22768;SDS011;13001;51.968;5.918;2024-01-27T01:30:08;21.63;;;4.90;;
22768;SDS011;13001;51.968;5.918;2024-01-27T01:32:36;20.08;;;4.85;;
22768;SDS011;13001;51.968;5.918;2024-01-27T01:35:03;27.70;;;5.17;;
22768;SDS011;13001;51.968;5.918;2024-01-27T01:37:31;25.07;;;4.97;;
22768;SDS011;13001;51.968;5.918;2024-01-27T01:39:58;16.52;;;4.65;;
22768;SDS011;13001;51.968;5.918;2024-01-27T01:42:26;18.65;;;4.65;;
22768;SDS011;13001;51.968;5.918;2024-01-27T01:44:55;22.42;;;5.37;;
22768;SDS011;13001;51.968;5.918;2024-01-27T01:47:22;20.95;;;5.03;;
22768;SDS011;13001;51.968;5.918;2024-01-27T01:49:50;23.38;;;5.42;;
22768;SDS011;13001;51.968;5.918;2024-01-27T01:52:20;21.05;;;4.78;;
22768;SDS011;13001;51.968;5.918;2024-01-27T01:54:49;20.50;;;5.00;;
22768;SDS011;13001;51.968;5.918;2024-01-27T01:57:17;20.72;;;4.60;;
22768;SDS011;13001;51.968;5.918;2024-01-27T01:59:45;21.80;;;4.37;;
22768;SDS011;13001;51.968;5.918;2024-01-27T02:02:13;19.48;;;4.90;;
22768;SDS011;13001;51.968;5.918;2024-01-27T02:04:42;19.95;;;4.60;;
22768;SDS011;13001;51.968;5.918;2024-01-27T02:07:12;25.27;;;5.08;;
22768;SDS011;13001;51.968;5.918;2024-01-27T02:09:40;17.45;;;4.60;;
22768;SDS011;13001;51.968;5.918;2024-01-27T02:12:08;15.83;;;4.97;;
22768;SDS011;13001;51.968;5.918;2024-01-27T02:14:35;21.50;;;4.95;;
22768;SDS011;13001;51.968;5.918;2024-01-27T02:17:03;24.02;;;5.30;;
22768;SDS011;13001;51.968;5.918;2024-01-27T02:19:31;18.87;;;4.72;;
22768;SDS011;13001;51.968;5.918;2024-01-27T02:21:59;17.60;;;4.70;;
22768;SDS011;13001;51.968;5.918;2024-01-27T02:24:26;16.82;;;4.70;;
22768;SDS011;13001;51.968;5.918;2024-01-27T02:26:57;24.23;;;5.00;;
22768;SDS011;13001;51.968;5.918;2024-01-27T02:29:24;23.80;;;5.00;;
22768;SDS011;13001;51.968;5.918;2024-01-27T02:31:54;16.77;;;4.85;;
22768;SDS011;13001;51.968;5.918;2024-01-27T02:34:22;18.48;;;4.55;;
22768;SDS011;13001;51.968;5.918;2024-01-27T02:36:50;21.65;;;5.00;;
22768;SDS011;13001;51.968;5.918;2024-01-27T02:39:17;20.60;;;5.35;;
22768;SDS011;13001;51.968;5.918;2024-01-27T02:41:45;21.27;;;4.90;;
22768;SDS011;13001;51.968;5.918;2024-01-27T02:44:12;22.25;;;4.90;;
22768;SDS011;13001;51.968;5.918;2024-01-27T02:46:40;20.62;;;4.85;;
22768;SDS011;13001;51.968;5.918;2024-01-27T02:49:09;18.50;;;5.20;;
22768;SDS011;13001;51.968;5.918;2024-01-27T02:51:36;23.02;;;4.90;;
22768;SDS011;13001;51.968;5.918;2024-01-27T02:54:04;20.97;;;4.40;;
22768;SDS011;13001;51.968;5.918;2024-01-27T02:56:31;20.72;;;4.70;;
22768;SDS011;13001;51.968;5.918;2024-01-27T02:58:59;21.00;;;4.62;;
22768;SDS011;13001;51.968;5.918;2024-01-27T03:01:26;19.37;;;4.60;;
22768;SDS011;13001;51.968;5.918;2024-01-27T03:03:54;20.97;;;4.50;;
22768;SDS011;13001;51.968;5.918;2024-01-27T03:06:21;15.23;;;4.47;;
22768;SDS011;13001;51.968;5.918;2024-01-27T03:08:49;25.32;;;4.65;;
22768;SDS011;13001;51.968;5.918;2024-01-27T03:11:16;25.73;;;4.90;;
22768;SDS011;13001;51.968;5.918;2024-01-27T03:13:44;21.12;;;4.37;;
22768;SDS011;13001;51.968;5.918;2024-01-27T03:16:11;26.33;;;5.10;;
22768;SDS011;13001;51.968;5.918;2024-01-27T03:18:40;18.15;;;4.45;;
22768;SDS011;13001;51.968;5.918;2024-01-27T03:21:09;21.52;;;4.40;;
22768;SDS011;13001;51.968;5.918;2024-01-27T03:23:37;20.37;;;4.80;;
22768;SDS011;13001;51.968;5.918;2024-01-27T03:26:04;21.62;;;4.80;;
22768;SDS011;13001;51.968;5.918;2024-01-27T03:28:33;20.45;;;4.58;;
22768;SDS011;13001;51.968;5.918;2024-01-27T03:31:01;23.50;;;4.83;;
22768;SDS011;13001;51.968;5.918;2024-01-27T03:33:28;18.55;;;4.53;;
22768;SDS011;13001;51.968;5.918;2024-01-27T03:35:56;21.37;;;4.77;;
22768;SDS011;13001;51.968;5.918;2024-01-27T03:38:24;20.43;;;4.25;;
22768;SDS011;13001;51.968;5.918;2024-01-27T03:40:51;24.23;;;4.92;;
22768;SDS011;13001;51.968;5.918;2024-01-27T03:43:19;19.80;;;4.85;;
22768;SDS011;13001;51.968;5.918;2024-01-27T03:45:46;20.27;;;4.43;;
22768;SDS011;13001;51.968;5.918;2024-01-27T03:48:14;18.55;;;4.90;;
22768;SDS011;13001;51.968;5.918;2024-01-27T03:50:41;19.82;;;5.22;;
22768;SDS011;13001;51.968;5.918;2024-01-27T03:53:09;21.93;;;5.40;;
22768;SDS011;13001;51.968;5.918;2024-01-27T03:55:36;23.73;;;5.67;;
22768;SDS011;13001;51.968;5.918;2024-01-27T03:58:04;22.15;;;5.83;;
22768;SDS011;13001;51.968;5.918;2024-01-27T04:00:31;19.57;;;5.45;;
22768;SDS011;13001;51.968;5.918;2024-01-27T04:02:59;16.27;;;4.70;;
22768;SDS011;13001;51.968;5.918;2024-01-27T04:05:28;23.22;;;5.85;;
22768;SDS011;13001;51.968;5.918;2024-01-27T04:07:56;20.52;;;6.12;;
22768;SDS011;13001;51.968;5.918;2024-01-27T04:10:24;20.60;;;6.10;;
22768;SDS011;13001;51.968;5.918;2024-01-27T04:12:51;22.62;;;6.47;;
22768;SDS011;13001;51.968;5.918;2024-01-27T04:15:19;24.02;;;6.00;;
22768;SDS011;13001;51.968;5.918;2024-01-27T04:17:46;21.97;;;5.62;;
22768;SDS011;13001;51.968;5.918;2024-01-27T04:20:14;21.12;;;6.28;;
22768;SDS011;13001;51.968;5.918;2024-01-27T04:22:42;21.60;;;6.37;;
22768;SDS011;13001;51.968;5.918;2024-01-27T04:25:09;20.02;;;5.87;;
22768;SDS011;13001;51.968;5.918;2024-01-27T04:27:38;27.48;;;7.20;;
22768;SDS011;13001;51.968;5.918;2024-01-27T04:30:10;22.10;;;7.15;;
22768;SDS011;13001;51.968;5.918;2024-01-27T04:32:38;22.60;;;6.93;;
22768;SDS011;13001;51.968;5.918;2024-01-27T04:35:09;27.22;;;7.53;;
22768;SDS011;13001;51.968;5.918;2024-01-27T04:37:37;26.17;;;7.50;;
22768;SDS011;13001;51.968;5.918;2024-01-27T04:40:05;20.80;;;8.30;;
22768;SDS011;13001;51.968;5.918;2024-01-27T04:42:39;21.95;;;8.20;;
22768;SDS011;13001;51.968;5.918;2024-01-27T04:45:07;27.22;;;8.23;;
22768;SDS011;13001;51.968;5.918;2024-01-27T04:47:34;27.30;;;8.83;;
22768;SDS011;13001;51.968;5.918;2024-01-27T04:50:02;25.40;;;8.88;;
22768;SDS011;13001;51.968;5.918;2024-01-27T04:52:30;22.98;;;7.80;;
22768;SDS011;13001;51.968;5.918;2024-01-27T04:54:57;23.20;;;8.03;;
22768;SDS011;13001;51.968;5.918;2024-01-27T04:57:25;25.57;;;9.05;;
22768;SDS011;13001;51.968;5.918;2024-01-27T04:59:53;26.00;;;8.58;;
22768;SDS011;13001;51.968;5.918;2024-01-27T05:02:20;25.35;;;8.65;;
22768;SDS011;13001;51.968;5.918;2024-01-27T05:04:48;24.15;;;9.60;;
22768;SDS011;13001;51.968;5.918;2024-01-27T05:07:15;29.85;;;10.68;;
22768;SDS011;13001;51.968;5.918;2024-01-27T05:09:43;27.30;;;9.80;;
22768;SDS011;13001;51.968;5.918;2024-01-27T05:12:10;28.45;;;9.98;;
22768;SDS011;13001;51.968;5.918;2024-01-27T05:14:42;26.33;;;10.30;;
22768;SDS011;13001;51.968;5.918;2024-01-27T05:17:12;27.87;;;9.98;;
22768;SDS011;13001;51.968;5.918;2024-01-27T05:19:39;27.10;;;10.38;;
22768;SDS011;13001;51.968;5.918;2024-01-27T05:22:07;31.35;;;10.60;;
22768;SDS011;13001;51.968;5.918;2024-01-27T05:24:35;26.63;;;10.50;;
22768;SDS011;13001;51.968;5.918;2024-01-27T05:27:02;27.90;;;10.90;;
22768;SDS011;13001;51.968;5.918;2024-01-27T05:29:30;28.23;;;10.55;;
22768;SDS011;13001;51.968;5.918;2024-01-27T05:31:58;32.30;;;10.93;;
22768;SDS011;13001;51.968;5.918;2024-01-27T05:34:26;29.75;;;11.38;;
22768;SDS011;13001;51.968;5.918;2024-01-27T05:36:53;28.67;;;11.33;;
22768;SDS011;13001;51.968;5.918;2024-01-27T05:39:21;27.50;;;10.28;;
22768;SDS011;13001;51.968;5.918;2024-01-27T05:41:48;21.23;;;9.38;;
22768;SDS011;13001;51.968;5.918;2024-01-27T05:44:16;28.23;;;9.98;;
22768;SDS011;13001;51.968;5.918;2024-01-27T05:46:43;25.23;;;10.57;;
22768;SDS011;13001;51.968;5.918;2024-01-27T05:49:11;25.00;;;10.45;;
22768;SDS011;13001;51.968;5.918;2024-01-27T05:51:38;25.90;;;10.32;;
22768;SDS011;13001;51.968;5.918;2024-01-27T05:54:06;32.28;;;10.28;;
22768;SDS011;13001;51.968;5.918;2024-01-27T05:56:35;28.60;;;11.75;;
22768;SDS011;13001;51.968;5.918;2024-01-27T05:59:04;25.32;;;10.25;;
22768;SDS011;13001;51.968;5.918;2024-01-27T06:01:33;24.30;;;9.80;;
22768;SDS011;13001;51.968;5.918;2024-01-27T06:04:00;29.10;;;10.95;;
22768;SDS011;13001;51.968;5.918;2024-01-27T06:06:29;27.87;;;10.95;;
22768;SDS011;13001;51.968;5.918;2024-01-27T06:08:57;24.72;;;9.98;;
22768;SDS011;13001;51.968;5.918;2024-01-27T06:11:24;34.10;;;10.85;;
22768;SDS011;13001;51.968;5.918;2024-01-27T06:13:52;26.37;;;10.98;;
22768;SDS011;13001;51.968;5.918;2024-01-27T06:16:20;32.00;;;11.93;;
22768;SDS011;13001;51.968;5.918;2024-01-27T06:18:49;25.15;;;11.28;;
22768;SDS011;13001;51.968;5.918;2024-01-27T06:21:16;27.40;;;11.20;;
22768;SDS011;13001;51.968;5.918;2024-01-27T06:23:44;30.05;;;11.18;;
22768;SDS011;13001;51.968;5.918;2024-01-27T06:26:12;27.62;;;10.90;;
22768;SDS011;13001;51.968;5.918;2024-01-27T06:28:40;23.87;;;11.28;;
22768;SDS011;13001;51.968;5.918;2024-01-27T06:31:08;31.48;;;11.40;;
22768;SDS011;13001;51.968;5.918;2024-01-27T06:33:35;30.65;;;11.15;;
22768;SDS011;13001;51.968;5.918;2024-01-27T06:36:03;29.07;;;10.25;;
22768;SDS011;13001;51.968;5.918;2024-01-27T06:38:30;24.45;;;10.10;;
22768;SDS011;13001;51.968;5.918;2024-01-27T06:40:58;27.47;;;10.77;;
22768;SDS011;13001;51.968;5.918;2024-01-27T06:43:25;24.57;;;10.70;;
22768;SDS011;13001;51.968;5.918;2024-01-27T06:45:53;25.95;;;11.30;;
22768;SDS011;13001;51.968;5.918;2024-01-27T06:48:22;26.60;;;11.20;;
22768;SDS011;13001;51.968;5.918;2024-01-27T06:50:53;28.83;;;11.55;;
22768;SDS011;13001;51.968;5.918;2024-01-27T06:53:20;25.90;;;10.78;;
22768;SDS011;13001;51.968;5.918;2024-01-27T06:55:48;29.20;;;10.65;;
22768;SDS011;13001;51.968;5.918;2024-01-27T06:58:15;30.77;;;11.53;;
22768;SDS011;13001;51.968;5.918;2024-01-27T07:00:43;28.35;;;10.80;;
22768;SDS011;13001;51.968;5.918;2024-01-27T07:03:11;28.73;;;10.77;;
22768;SDS011;13001;51.968;5.918;2024-01-27T07:05:38;32.03;;;12.28;;
22768;SDS011;13001;51.968;5.918;2024-01-27T07:08:06;27.32;;;11.65;;
22768;SDS011;13001;51.968;5.918;2024-01-27T07:10:35;35.33;;;10.93;;
22768;SDS011;13001;51.968;5.918;2024-01-27T07:13:03;24.47;;;10.98;;
22768;SDS011;13001;51.968;5.918;2024-01-27T07:15:33;28.07;;;11.85;;
22768;SDS011;13001;51.968;5.918;2024-01-27T07:18:02;23.75;;;11.73;;
22768;SDS011;13001;51.968;5.918;2024-01-27T07:20:30;26.90;;;11.88;;
22768;SDS011;13001;51.968;5.918;2024-01-27T07:22:58;28.50;;;11.53;;
22768;SDS011;13001;51.968;5.918;2024-01-27T07:25:25;30.77;;;11.35;;
22768;SDS011;13001;51.968;5.918;2024-01-27T07:27:54;26.77;;;10.60;;
22768;SDS011;13001;51.968;5.918;2024-01-27T07:30:21;26.23;;;10.85;;
22768;SDS011;13001;51.968;5.918;2024-01-27T07:32:49;25.37;;;10.65;;
22768;SDS011;13001;51.968;5.918;2024-01-27T07:35:16;29.70;;;11.95;;
22768;SDS011;13001;51.968;5.918;2024-01-27T07:37:44;30.10;;;11.55;;
22768;SDS011;13001;51.968;5.918;2024-01-27T07:40:11;28.00;;;11.45;;
22768;SDS011;13001;51.968;5.918;2024-01-27T07:42:41;26.60;;;11.20;;
22768;SDS011;13001;51.968;5.918;2024-01-27T07:45:09;27.32;;;10.63;;
22768;SDS011;13001;51.968;5.918;2024-01-27T07:47:36;24.75;;;9.85;;
22768;SDS011;13001;51.968;5.918;2024-01-27T07:50:04;20.90;;;9.83;;
22768;SDS011;13001;51.968;5.918;2024-01-27T07:52:32;23.80;;;9.47;;
22768;SDS011;13001;51.968;5.918;2024-01-27T07:54:59;21.05;;;9.83;;
22768;SDS011;13001;51.968;5.918;2024-01-27T07:57:27;24.43;;;9.65;;
22768;SDS011;13001;51.968;5.918;2024-01-27T07:59:55;20.80;;;9.25;;
22768;SDS011;13001;51.968;5.918;2024-01-27T08:02:22;22.55;;;8.68;;
22768;SDS011;13001;51.968;5.918;2024-01-27T08:04:51;21.10;;;7.83;;
22768;SDS011;13001;51.968;5.918;2024-01-27T08:07:19;14.90;;;6.40;;
22768;SDS011;13001;51.968;5.918;2024-01-27T08:09:46;15.53;;;6.77;;
22768;SDS011;13001;51.968;5.918;2024-01-27T08:12:15;15.33;;;5.77;;
22768;SDS011;13001;51.968;5.918;2024-01-27T08:14:43;16.77;;;6.20;;
22768;SDS011;13001;51.968;5.918;2024-01-27T08:17:10;15.90;;;5.93;;
22768;SDS011;13001;51.968;5.918;2024-01-27T08:19:39;14.67;;;5.07;;
22768;SDS011;13001;51.968;5.918;2024-01-27T08:22:06;16.87;;;5.60;;
22768;SDS011;13001;51.968;5.918;2024-01-27T08:29:29;16.37;;;5.00;;
22768;SDS011;13001;51.968;5.918;2024-01-27T08:31:58;14.40;;;5.13;;
22768;SDS011;13001;51.968;5.918;2024-01-27T08:34:27;14.60;;;5.60;;
22768;SDS011;13001;51.968;5.918;2024-01-27T08:37:00;19.00;;;4.93;;
22768;SDS011;13001;51.968;5.918;2024-01-27T08:39:25;16.83;;;4.93;;
22768;SDS011;13001;51.968;5.918;2024-01-27T08:41:53;12.87;;;4.80;;
22768;SDS011;13001;51.968;5.918;2024-01-27T08:44:20;11.47;;;5.30;;
22768;SDS011;13001;51.968;5.918;2024-01-27T08:46:49;11.37;;;5.37;;
22768;SDS011;13001;51.968;5.918;2024-01-27T08:49:16;11.40;;;4.77;;
22768;SDS011;13001;51.968;5.918;2024-01-27T08:51:44;12.90;;;5.40;;
22768;SDS011;13001;51.968;5.918;2024-01-27T08:54:11;15.37;;;5.43;;
22768;SDS011;13001;51.968;5.918;2024-01-27T08:56:39;14.27;;;5.13;;
22768;SDS011;13001;51.968;5.918;2024-01-27T08:59:08;12.87;;;5.23;;
22768;SDS011;13001;51.968;5.918;2024-01-27T09:01:36;17.27;;;5.10;;
22768;SDS011;13001;51.968;5.918;2024-01-27T09:04:03;17.17;;;5.00;;
22768;SDS011;13001;51.968;5.918;2024-01-27T09:06:31;13.50;;;5.40;;
22768;SDS011;13001;51.968;5.918;2024-01-27T09:08:58;17.03;;;5.63;;
22768;SDS011;13001;51.968;5.918;2024-01-27T09:11:26;15.00;;;5.53;;
22768;SDS011;13001;51.968;5.918;2024-01-27T09:13:56;15.07;;;5.40;;
22768;SDS011;13001;51.968;5.918;2024-01-27T09:16:27;26.82;;;5.62;;
22768;SDS011;13001;51.968;5.918;2024-01-27T09:18:54;15.15;;;5.25;;
22768;SDS011;13001;51.968;5.918;2024-01-27T09:21:21;14.28;;;5.70;;
22768;SDS011;13001;51.968;5.918;2024-01-27T09:23:50;16.82;;;5.72;;
22768;SDS011;13001;51.968;5.918;2024-01-27T09:26:18;13.78;;;4.83;;
22768;SDS011;13001;51.968;5.918;2024-01-27T09:28:45;16.15;;;5.20;;
22768;SDS011;13001;51.968;5.918;2024-01-27T09:31:14;15.50;;;6.07;;
22768;SDS011;13001;51.968;5.918;2024-01-27T09:33:43;16.73;;;5.50;;
22768;SDS011;13001;51.968;5.918;2024-01-27T09:36:11;15.20;;;5.57;;
22768;SDS011;13001;51.968;5.918;2024-01-27T09:38:38;16.00;;;5.77;;
22768;SDS011;13001;51.968;5.918;2024-01-27T09:41:06;11.40;;;6.07;;
22768;SDS011;13001;51.968;5.918;2024-01-27T09:43:34;14.27;;;5.73;;
22768;SDS011;13001;51.968;5.918;2024-01-27T09:46:03;18.90;;;5.57;;
22768;SDS011;13001;51.968;5.918;2024-01-27T09:48:31;16.80;;;6.23;;
22768;SDS011;13001;51.968;5.918;2024-01-27T09:51:00;16.10;;;5.50;;
22768;SDS011;13001;51.968;5.918;2024-01-27T09:53:31;15.47;;;5.73;;
22768;SDS011;13001;51.968;5.918;2024-01-27T09:56:01;19.40;;;6.00;;
22768;SDS011;13001;51.968;5.918;2024-01-27T09:58:29;18.50;;;5.37;;
22768;SDS011;13001;51.968;5.918;2024-01-27T10:00:58;17.67;;;5.97;;
22768;SDS011;13001;51.968;5.918;2024-01-27T10:03:27;17.87;;;5.93;;
22768;SDS011;13001;51.968;5.918;2024-01-27T10:05:56;12.47;;;5.43;;
22768;SDS011;13001;51.968;5.918;2024-01-27T10:08:24;21.67;;;6.63;;
22768;SDS011;13001;51.968;5.918;2024-01-27T10:10:57;21.23;;;6.80;;
22768;SDS011;13001;51.968;5.918;2024-01-27T10:13:22;14.73;;;5.73;;
22768;SDS011;13001;51.968;5.918;2024-01-27T10:16:05;19.33;;;6.60;;
22768;SDS011;13001;51.968;5.918;2024-01-27T10:18:34;17.90;;;6.13;;
22768;SDS011;13001;51.968;5.918;2024-01-27T10:21:14;21.07;;;6.10;;
22768;SDS011;13001;51.968;5.918;2024-01-27T10:23:46;21.73;;;6.13;;
22768;SDS011;13001;51.968;5.918;2024-01-27T10:26:14;17.70;;;5.80;;
22768;SDS011;13001;51.968;5.918;2024-01-27T10:28:41;21.27;;;6.30;;
22768;SDS011;13001;51.968;5.918;2024-01-27T10:31:12;24.50;;;6.83;;
22768;SDS011;13001;51.968;5.918;2024-01-27T10:33:50;16.63;;;6.57;;
22768;SDS011;13001;51.968;5.918;2024-01-27T10:36:10;15.20;;;5.97;;
22768;SDS011;13001;51.968;5.918;2024-01-27T10:38:38;18.67;;;6.33;;
22768;SDS011;13001;51.968;5.918;2024-01-27T10:41:09;20.73;;;6.30;;
22768;SDS011;13001;51.968;5.918;2024-01-27T10:43:37;15.90;;;6.43;;
22768;SDS011;13001;51.968;5.918;2024-01-27T10:46:06;19.27;;;6.23;;
22768;SDS011;13001;51.968;5.918;2024-01-27T10:48:35;16.63;;;5.40;;
22768;SDS011;13001;51.968;5.918;2024-01-27T10:51:03;19.03;;;6.73;;
22768;SDS011;13001;51.968;5.918;2024-01-27T10:53:36;13.57;;;5.93;;
22768;SDS011;13001;51.968;5.918;2024-01-27T10:56:05;18.13;;;6.27;;
22768;SDS011;13001;51.968;5.918;2024-01-27T10:58:35;22.57;;;6.63;;
22768;SDS011;13001;51.968;5.918;2024-01-27T11:01:05;17.37;;;5.83;;
22768;SDS011;13001;51.968;5.918;2024-01-27T11:03:34;12.73;;;6.10;;
22768;SDS011;13001;51.968;5.918;2024-01-27T11:06:05;16.43;;;5.80;;
22768;SDS011;13001;51.968;5.918;2024-01-27T11:08:34;19.17;;;5.77;;
22768;SDS011;13001;51.968;5.918;2024-01-27T11:11:03;17.03;;;5.33;;
22768;SDS011;13001;51.968;5.918;2024-01-27T11:13:30;16.17;;;5.63;;
22768;SDS011;13001;51.968;5.918;2024-01-27T11:15:59;18.37;;;5.87;;
22768;SDS011;13001;51.968;5.918;2024-01-27T11:18:27;19.23;;;5.40;;
22768;SDS011;13001;51.968;5.918;2024-01-27T11:20:56;16.97;;;5.63;;
22768;SDS011;13001;51.968;5.918;2024-01-27T11:23:34;22.03;;;5.40;;
22768;SDS011;13001;51.968;5.918;2024-01-27T11:26:04;17.03;;;5.77;;
22768;SDS011;13001;51.968;5.918;2024-01-27T11:28:35;14.80;;;5.57;;
22768;SDS011;13001;51.968;5.918;2024-01-27T11:31:04;18.30;;;5.37;;
22768;SDS011;13001;51.968;5.918;2024-01-27T11:33:32;19.00;;;6.30;;
22768;SDS011;13001;51.968;5.918;2024-01-27T11:36:03;22.90;;;5.40;;
22768;SDS011;13001;51.968;5.918;2024-01-27T11:38:32;14.70;;;4.60;;
22768;SDS011;13001;51.968;5.918;2024-01-27T11:40:59;13.07;;;5.27;;
22768;SDS011;13001;51.968;5.918;2024-01-27T11:43:27;15.80;;;5.20;;
22768;SDS011;13001;51.968;5.918;2024-01-27T11:46:03;20.27;;;5.30;;
22768;SDS011;13001;51.968;5.918;2024-01-27T11:48:27;14.70;;;5.67;;
22768;SDS011;13001;51.968;5.918;2024-01-27T11:51:15;12.87;;;4.83;;
22768;SDS011;13001;51.968;5.918;2024-01-27T11:53:35;15.10;;;5.63;;
22768;SDS011;13001;51.968;5.918;2024-01-27T11:56:03;18.73;;;5.47;;
22768;SDS011;13001;51.968;5.918;2024-01-27T11:58:32;20.47;;;5.63;;
22768;SDS011;13001;51.968;5.918;2024-01-27T12:01:00;14.63;;;5.23;;
22768;SDS011;13001;51.968;5.918;2024-01-27T12:03:29;14.77;;;4.60;;
22768;SDS011;13001;51.968;5.918;2024-01-27T12:05:57;14.40;;;4.93;;
22768;SDS011;13001;51.968;5.918;2024-01-27T12:08:24;19.00;;;5.23;;
22768;SDS011;13001;51.968;5.918;2024-01-27T12:10:53;15.40;;;4.50;;
22768;SDS011;13001;51.968;5.918;2024-01-27T12:13:21;15.90;;;4.60;;
22768;SDS011;13001;51.968;5.918;2024-01-27T12:15:49;13.60;;;5.23;;
22768;SDS011;13001;51.968;5.918;2024-01-27T12:18:16;15.67;;;5.00;;
22768;SDS011;13001;51.968;5.918;2024-01-27T12:20:45;15.90;;;4.87;;
22768;SDS011;13001;51.968;5.918;2024-01-27T12:23:14;15.27;;;4.80;;
22768;SDS011;13001;51.968;5.918;2024-01-27T12:25:42;14.00;;;4.90;;
22768;SDS011;13001;51.968;5.918;2024-01-27T12:28:11;19.60;;;5.87;;
22768;SDS011;13001;51.968;5.918;2024-01-27T12:30:38;21.67;;;5.17;;
22768;SDS011;13001;51.968;5.918;2024-01-27T12:33:09;15.23;;;5.43;;
22768;SDS011;13001;51.968;5.918;2024-01-27T12:35:39;20.77;;;4.80;;
22768;SDS011;13001;51.968;5.918;2024-01-27T12:38:06;13.03;;;4.43;;
22768;SDS011;13001;51.968;5.918;2024-01-27T12:40:34;14.07;;;3.80;;
22768;SDS011;13001;51.968;5.918;2024-01-27T12:43:01;16.70;;;4.17;;
22768;SDS011;13001;51.968;5.918;2024-01-27T12:45:29;13.00;;;3.53;;
22768;SDS011;13001;51.968;5.918;2024-01-27T12:47:59;15.10;;;4.47;;
22768;SDS011;13001;51.968;5.918;2024-01-27T12:50:28;14.10;;;3.47;;
22768;SDS011;13001;51.968;5.918;2024-01-27T12:52:56;16.17;;;3.90;;
22768;SDS011;13001;51.968;5.918;2024-01-27T12:55:23;14.37;;;4.17;;
22768;SDS011;13001;51.968;5.918;2024-01-27T12:57:51;12.13;;;4.00;;
22768;SDS011;13001;51.968;5.918;2024-01-27T13:00:18;13.63;;;3.83;;
22768;SDS011;13001;51.968;5.918;2024-01-27T13:02:47;16.80;;;4.07;;
22768;SDS011;13001;51.968;5.918;2024-01-27T13:05:14;17.57;;;3.87;;
22768;SDS011;13001;51.968;5.918;2024-01-27T13:07:42;14.97;;;4.53;;
22768;SDS011;13001;51.968;5.918;2024-01-27T13:10:12;18.20;;;4.00;;
22768;SDS011;13001;51.968;5.918;2024-01-27T13:12:39;12.43;;;3.73;;
22768;SDS011;13001;51.968;5.918;2024-01-27T13:15:07;12.57;;;3.87;;
22768;SDS011;13001;51.968;5.918;2024-01-27T13:17:36;16.70;;;4.07;;
22768;SDS011;13001;51.968;5.918;2024-01-27T13:20:06;14.73;;;3.97;;
22768;SDS011;13001;51.968;5.918;2024-01-27T13:22:33;13.83;;;3.43;;
22768;SDS011;13001;51.968;5.918;2024-01-27T13:25:01;18.27;;;3.67;;
22768;SDS011;13001;51.968;5.918;2024-01-27T13:27:30;17.37;;;3.83;;
22768;SDS011;13001;51.968;5.918;2024-01-27T13:29:59;21.63;;;4.03;;
22768;SDS011;13001;51.968;5.918;2024-01-27T13:32:27;14.17;;;3.30;;
22768;SDS011;13001;51.968;5.918;2024-01-27T13:34:54;12.50;;;3.73;;
22768;SDS011;13001;51.968;5.918;2024-01-27T13:37:22;17.33;;;4.00;;
22768;SDS011;13001;51.968;5.918;2024-01-27T13:39:51;15.00;;;3.53;;
22768;SDS011;13001;51.968;5.918;2024-01-27T13:42:18;16.70;;;3.23;;
22768;SDS011;13001;51.968;5.918;2024-01-27T13:44:46;16.10;;;3.83;;
22768;SDS011;13001;51.968;5.918;2024-01-27T13:47:13;14.97;;;3.70;;
22768;SDS011;13001;51.968;5.918;2024-01-27T13:49:42;14.70;;;3.80;;
22768;SDS011;13001;51.968;5.918;2024-01-27T13:52:11;23.93;;;4.37;;
22768;SDS011;13001;51.968;5.918;2024-01-27T13:54:38;13.97;;;3.60;;
22768;SDS011;13001;51.968;5.918;2024-01-27T13:57:06;16.23;;;4.10;;
22768;SDS011;13001;51.968;5.918;2024-01-27T13:59:37;17.10;;;3.87;;
22768;SDS011;13001;51.968;5.918;2024-01-27T14:02:06;12.97;;;3.63;;
22768;SDS011;13001;51.968;5.918;2024-01-27T14:04:34;19.23;;;4.00;;
22768;SDS011;13001;51.968;5.918;2024-01-27T14:07:02;12.73;;;3.60;;
22768;SDS011;13001;51.968;5.918;2024-01-27T14:09:31;16.97;;;4.65;;
22768;SDS011;13001;51.968;5.918;2024-01-27T14:12:00;13.57;;;3.53;;
22768;SDS011;13001;51.968;5.918;2024-01-27T14:14:28;19.57;;;4.30;;
22768;SDS011;13001;51.968;5.918;2024-01-27T14:16:57;20.13;;;4.13;;
22768;SDS011;13001;51.968;5.918;2024-01-27T14:19:24;16.20;;;3.83;;
22768;SDS011;13001;51.968;5.918;2024-01-27T14:21:52;17.00;;;4.07;;
22768;SDS011;13001;51.968;5.918;2024-01-27T14:24:21;16.77;;;3.30;;
22768;SDS011;13001;51.968;5.918;2024-01-27T14:26:49;18.53;;;3.73;;
22768;SDS011;13001;51.968;5.918;2024-01-27T14:29:17;20.13;;;3.70;;
22768;SDS011;13001;51.968;5.918;2024-01-27T14:31:44;19.67;;;3.50;;
22768;SDS011;13001;51.968;5.918;2024-01-27T14:34:12;12.83;;;3.40;;
22768;SDS011;13001;51.968;5.918;2024-01-27T14:36:40;17.43;;;3.33;;
22768;SDS011;13001;51.968;5.918;2024-01-27T14:39:09;14.20;;;3.50;;
22768;SDS011;13001;51.968;5.918;2024-01-27T14:41:37;11.93;;;3.47;;
22768;SDS011;13001;51.968;5.918;2024-01-27T14:44:04;15.70;;;3.67;;